Time;durP1;ratioP1;P1;durP2;ratioP2;P2;SDS_P1;SDS_P2;PMS_P1;PMS_P2;Temp;Humidity;BMP_temperature;BMP_pressure;BME280_temperature;BME280_humidity;BME280_pressure;Samples;Min_cycle;Max_cycle;Signal;HPM_P1;HPM_P2
2021/10/14 00:02:12;;;;;;;12.98;4.85;;;9.60;99.90;;;;;;12431110;28;20059;-88
2021/10/14 00:08:14;;;;;;;16.58;5.22;;;9.60;99.90;;;;;;12418596;28;20077;-85
2021/10/14 00:14:16;;;;;;;9.05;4.95;;;9.70;99.90;;;;;;12437082;28;20092;-85
2021/10/14 00:20:18;;;;;;;12.02;5.40;;;9.70;99.90;;;;;;12432833;28;20055;-85
2021/10/14 00:26:19;;;;;;;11.43;5.72;;;9.60;99.90;;;;;;12451421;28;20053;-86
2021/10/14 00:32:21;;;;;;;9.50;6.60;;;9.60;99.90;;;;;;12427211;28;20041;-85
2021/10/14 00:38:23;;;;;;;13.40;6.45;;;9.50;99.90;;;;;;12433810;28;20083;-84
2021/10/14 00:44:25;;;;;;;10.38;6.00;;;9.50;99.90;;;;;;12429578;28;20053;-85
2021/10/14 00:50:27;;;;;;;14.10;6.38;;;9.50;99.90;;;;;;12444643;28;20050;-84
2021/10/14 00:56:29;;;;;;;15.95;8.05;;;9.50;99.90;;;;;;12449172;28;20140;-87
2021/10/14 01:02:31;;;;;;;20.52;7.80;;;9.50;99.90;;;;;;12427255;28;20045;-86
2021/10/14 01:08:33;;;;;;;18.27;8.77;;;9.50;99.90;;;;;;12448266;28;20053;-85
2021/10/14 01:14:34;;;;;;;16.73;9.02;;;9.50;99.90;;;;;;12430054;28;20509;-84
2021/10/14 01:20:36;;;;;;;18.17;10.63;;;9.50;99.90;;;;;;12427996;28;20124;-85
2021/10/14 01:26:39;;;;;;;22.35;12.35;;;9.60;99.90;;;;;;12432365;28;20382;-84
2021/10/14 01:32:41;;;;;;;23.35;12.90;;;9.60;99.90;;;;;;12423516;28;20042;-84
2021/10/14 01:38:44;;;;;;;21.27;13.70;;;9.60;99.90;;;;;;12433410;28;20099;-84
2021/10/14 01:44:46;;;;;;;21.70;15.38;;;9.60;99.90;;;;;;12430563;28;20107;-86
2021/10/14 01:50:48;;;;;;;23.60;15.80;;;9.60;99.90;;;;;;12456585;28;20041;-84
2021/10/14 01:56:50;;;;;;;23.73;15.77;;;9.60;99.90;;;;;;12436026;28;20049;-86
2021/10/14 02:02:51;;;;;;;22.90;16.33;;;9.70;99.90;;;;;;12458632;28;20554;-85
2021/10/14 02:08:54;;;;;;;21.90;16.35;;;9.60;99.90;;;;;;12457738;28;20046;-86
2021/10/14 02:14:55;;;;;;;22.63;16.50;;;9.60;99.90;;;;;;12439898;28;20150;-86
2021/10/14 02:20:57;;;;;;;24.85;17.50;;;9.60;99.90;;;;;;12439601;28;20037;-85
2021/10/14 02:26:59;;;;;;;24.20;18.13;;;9.60;99.90;;;;;;12431981;28;20041;-85
2021/10/14 02:33:01;;;;;;;25.52;19.88;;;9.60;99.90;;;;;;12437693;28;20140;-84
2021/10/14 02:39:04;;;;;;;31.20;19.42;;;9.70;99.90;;;;;;12437226;28;20141;-86
2021/10/14 02:45:07;;;;;;;28.30;19.70;;;9.70;99.90;;;;;;12431713;28;20060;-85
2021/10/14 02:51:08;;;;;;;30.45;20.05;;;9.70;99.90;;;;;;12433874;28;20061;-85
2021/10/14 02:57:10;;;;;;;29.50;19.33;;;9.70;99.90;;;;;;12436351;28;20080;-87
2021/10/14 03:03:12;;;;;;;30.13;21.50;;;9.70;99.90;;;;;;12431185;28;20045;-86
2021/10/14 03:09:14;;;;;;;30.67;20.67;;;9.70;99.90;;;;;;12435870;28;20119;-84
2021/10/14 03:15:16;;;;;;;31.75;20.88;;;9.70;99.90;;;;;;12429395;28;20045;-85
2021/10/14 03:21:19;;;;;;;37.20;22.20;;;9.80;99.90;;;;;;12436583;28;20140;-85
2021/10/14 03:27:21;;;;;;;32.50;21.17;;;9.70;99.90;;;;;;12453499;28;20619;-85
2021/10/14 03:33:23;;;;;;;34.17;21.80;;;9.70;99.90;;;;;;12442366;28;20476;-86
2021/10/14 03:39:25;;;;;;;33.22;22.55;;;9.60;99.90;;;;;;12448934;28;20060;-85
2021/10/14 03:45:27;;;;;;;36.97;23.17;;;9.60;99.90;;;;;;12429214;28;20057;-86
2021/10/14 03:51:29;;;;;;;31.00;22.05;;;9.60;99.90;;;;;;12428482;28;20047;-84
2021/10/14 03:57:31;;;;;;;31.40;22.42;;;9.60;99.90;;;;;;12432611;28;20362;-85
2021/10/14 04:03:33;;;;;;;37.97;22.45;;;9.70;99.90;;;;;;12444937;28;20076;-85
2021/10/14 04:09:35;;;;;;;32.42;21.50;;;9.70;99.90;;;;;;12425332;28;20054;-86
2021/10/14 04:15:36;;;;;;;28.65;21.25;;;9.70;99.90;;;;;;12433973;28;20069;-86
2021/10/14 04:21:39;;;;;;;29.73;20.73;;;9.80;99.90;;;;;;12426169;28;20516;-85
2021/10/14 04:27:41;;;;;;;28.85;20.33;;;9.80;99.90;;;;;;12430992;28;20131;-86
2021/10/14 04:33:43;;;;;;;29.65;19.02;;;9.80;99.90;;;;;;12450373;28;20083;-86
2021/10/14 04:39:44;;;;;;;28.08;19.52;;;9.80;99.90;;;;;;12444144;28;20086;-86
2021/10/14 04:45:46;;;;;;;30.17;19.50;;;9.70;99.90;;;;;;12390508;28;20050;-87
2021/10/14 04:51:48;;;;;;;34.97;20.20;;;9.80;99.90;;;;;;12400627;28;20525;-85
2021/10/14 04:57:51;;;;;;;27.33;20.10;;;9.80;99.90;;;;;;12395521;28;20050;-85
2021/10/14 05:03:53;;;;;;;36.20;20.60;;;9.80;99.90;;;;;;12398451;28;20101;-87
2021/10/14 05:09:55;;;;;;;39.30;21.40;;;9.80;99.90;;;;;;12393162;28;20050;-87
2021/10/14 05:15:56;;;;;;;33.15;21.17;;;9.90;99.90;;;;;;12395220;28;20049;-86
2021/10/14 05:21:58;;;;;;;35.25;21.73;;;9.90;99.90;;;;;;12398185;28;20573;-86
2021/10/14 05:28:00;;;;;;;36.20;20.92;;;9.90;99.90;;;;;;12393929;28;20042;-84
2021/10/14 05:34:03;;;;;;;35.22;21.95;;;9.90;99.90;;;;;;12404552;28;20049;-86
2021/10/14 05:40:06;;;;;;;38.47;23.48;;;9.90;99.90;;;;;;12400847;28;20103;-85
2021/10/14 05:46:08;;;;;;;40.90;24.30;;;9.90;99.90;;;;;;12404803;28;20053;-87
2021/10/14 05:52:10;;;;;;;42.95;24.38;;;9.90;99.90;;;;;;12392914;28;20599;-86
2021/10/14 05:58:12;;;;;;;36.63;22.83;;;9.90;99.90;;;;;;12399956;28;20137;-86
2021/10/14 06:04:13;;;;;;;39.78;22.17;;;9.90;99.90;;;;;;12399912;28;20076;-85
2021/10/14 06:10:16;;;;;;;34.28;21.38;;;9.90;99.90;;;;;;12396308;28;20045;-85
2021/10/14 06:16:18;;;;;;;29.88;19.00;;;10.10;99.90;;;;;;12397403;28;20129;-84
2021/10/14 06:22:20;;;;;;;31.08;20.02;;;10.00;99.90;;;;;;12402134;28;20089;-84
2021/10/14 06:28:22;;;;;;;27.90;19.02;;;10.00;99.90;;;;;;12394771;28;20104;-85
2021/10/14 06:34:24;;;;;;;27.90;18.98;;;10.10;99.90;;;;;;12407949;28;20046;-85
2021/10/14 06:40:26;;;;;;;24.00;17.38;;;10.00;99.90;;;;;;12393755;28;20254;-84
2021/10/14 06:46:28;;;;;;;24.20;16.95;;;10.00;99.90;;;;;;12430071;28;20113;-84
2021/10/14 06:52:30;;;;;;;24.95;16.77;;;10.10;99.90;;;;;;12444671;28;20069;-84
2021/10/14 06:58:31;;;;;;;20.98;15.68;;;10.10;99.90;;;;;;12425758;28;20045;-84
2021/10/14 07:04:34;;;;;;;24.25;16.58;;;10.10;99.90;;;;;;12433535;28;20045;-84
2021/10/14 07:10:35;;;;;;;22.90;17.38;;;10.10;99.90;;;;;;12438535;28;20132;-83
2021/10/14 07:16:37;;;;;;;25.73;18.63;;;10.10;99.90;;;;;;12440328;28;20071;-83
2021/10/14 07:22:39;;;;;;;25.70;18.65;;;10.20;99.90;;;;;;12444892;28;20103;-84
2021/10/14 07:28:41;;;;;;;29.58;20.27;;;10.30;99.90;;;;;;12416867;28;20552;-85
2021/10/14 07:34:43;;;;;;;33.67;20.48;;;10.20;99.90;;;;;;12424448;28;20046;-83
2021/10/14 07:40:45;;;;;;;29.10;19.80;;;10.30;99.90;;;;;;12440653;28;20574;-85
2021/10/14 07:46:48;;;;;;;26.02;17.75;;;10.30;99.90;;;;;;12430964;28;20498;-83
2021/10/14 07:52:50;;;;;;;25.58;17.33;;;10.40;99.90;;;;;;12432108;28;20191;-83
2021/10/14 07:58:51;;;;;;;27.83;17.23;;;10.40;99.90;;;;;;12451917;28;20057;-83
2021/10/14 08:04:55;;;;;;;25.23;17.17;;;10.40;99.90;;;;;;12449020;28;20516;-84
2021/10/14 08:10:57;;;;;;;19.52;13.68;;;10.40;99.90;;;;;;12452765;28;20315;-84
2021/10/14 08:16:58;;;;;;;20.65;13.45;;;10.40;99.90;;;;;;12422449;28;20566;-83
2021/10/14 08:23:02;;;;;;;18.70;12.43;;;10.50;99.90;;;;;;12433705;28;20128;-84
2021/10/14 08:29:06;;;;;;;22.20;13.55;;;10.50;99.90;;;;;;12427187;28;20132;-83
2021/10/14 08:35:09;;;;;;;;;;;10.50;99.90;;;;;;12432541;28;20043;-84
2021/10/14 08:41:16;;;;;;;27.55;14.25;;;10.60;99.90;;;;;;12440229;28;19983;-85
2021/10/14 08:47:18;;;;;;;27.25;15.68;;;10.60;99.90;;;;;;12425493;28;20057;-85
2021/10/14 08:53:20;;;;;;;35.17;18.13;;;10.60;99.90;;;;;;12421297;28;20752;-84
2021/10/14 08:59:22;;;;;;;37.53;20.45;;;10.60;99.90;;;;;;12439706;28;20401;-84
2021/10/14 09:05:24;;;;;;;40.17;21.70;;;10.60;99.90;;;;;;12427604;28;20076;-86
2021/10/14 09:11:29;;;;;;;52.95;25.02;;;10.60;99.90;;;;;;12429073;28;20055;-85
2021/10/14 09:17:37;;;;;;;56.15;26.35;;;10.70;99.90;;;;;;12414550;28;20103;-84
2021/10/14 09:23:39;;;;;;;55.47;25.45;;;10.80;99.90;;;;;;12412950;28;20132;-84
2021/10/14 09:29:41;;;;;;;49.55;24.88;;;10.80;99.90;;;;;;12442100;28;20076;-84
2021/10/14 09:35:42;;;;;;;46.13;24.05;;;10.80;99.90;;;;;;12426543;28;20041;-85
2021/10/14 09:41:45;;;;;;;44.47;22.85;;;10.80;99.90;;;;;;12435545;28;20856;-85
2021/10/14 09:48:11;;;;;;;40.58;22.10;;;10.90;99.90;;;;;;12424521;28;20061;-84
2021/10/14 09:54:13;;;;;;;42.55;22.60;;;10.90;99.90;;;;;;12415404;28;20486;-85
2021/10/14 10:00:15;;;;;;;49.15;23.88;;;10.90;99.90;;;;;;12424581;28;20053;-84
2021/10/14 10:06:22;;;;;;;47.03;23.25;;;11.00;99.90;;;;;;12446101;28;20061;-87
2021/10/14 10:12:25;;;;;;;54.10;24.73;;;11.00;99.90;;;;;;12438244;28;20140;-85
2021/10/14 10:18:26;;;;;;;58.17;27.50;;;11.00;99.90;;;;;;12430354;28;20536;-84
2021/10/14 10:24:30;;;;;;;57.70;27.40;;;11.10;99.90;;;;;;12434406;28;20045;-83
2021/10/14 10:30:38;;;;;;;61.40;29.45;;;11.20;99.90;;;;;;12425185;28;20060;-84
2021/10/14 10:36:44;;;;;;;67.75;29.50;;;11.30;99.90;;;;;;12429898;28;20058;-84
2021/10/14 10:42:58;;;;;;;59.30;30.38;;;11.50;99.90;;;;;;12430730;28;20475;-84
2021/10/14 10:49:17;;;;;;;59.10;30.48;;;11.70;99.90;;;;;;12437199;28;20053;-84
2021/10/14 10:55:22;;;;;;;60.78;30.92;;;11.70;99.90;;;;;;12424794;28;20049;-86
2021/10/14 11:01:25;;;;;;;60.75;30.75;;;11.80;99.90;;;;;;12423708;28;20311;-86
2021/10/14 11:07:27;;;;;;;57.75;30.63;;;11.70;99.90;;;;;;12434597;28;20045;-86
2021/10/14 11:13:50;;;;;;;60.67;31.65;;;11.60;99.90;;;;;;12441918;28;20041;-85
2021/10/14 11:20:06;;;;;;;60.50;33.30;;;11.70;99.90;;;;;;12416882;28;20403;-84
2021/10/14 11:26:14;;;;;;;60.22;32.00;;;11.70;99.90;;;;;;12414814;28;20440;-85
2021/10/14 11:32:20;;;;;;;62.22;32.40;;;11.60;99.90;;;;;;12444081;28;20065;-84
2021/10/14 11:38:22;;;;;;;58.97;34.30;;;11.70;99.90;;;;;;12423769;28;20088;-85
2021/10/14 11:44:29;;;;;;;54.05;30.85;;;11.80;99.90;;;;;;12449710;28;20081;-83
2021/10/14 11:50:32;;;;;;;53.42;31.20;;;11.90;99.90;;;;;;12418085;28;20117;-85
2021/10/14 11:56:48;;;;;;;50.03;29.88;;;12.00;99.90;;;;;;12447095;28;20441;-85
2021/10/14 12:02:50;;;;;;;55.17;32.08;;;12.10;99.90;;;;;;12440563;28;20235;-86
2021/10/14 12:08:53;;;;;;;55.25;31.63;;;12.20;99.90;;;;;;12426981;28;20060;-85
2021/10/14 12:15:03;;;;;;;47.38;29.95;;;12.10;99.90;;;;;;12444081;28;20429;-84
2021/10/14 12:21:32;;;;;;;48.60;29.08;;;12.20;99.90;;;;;;12428103;28;20053;-85
2021/10/14 12:27:55;;;;;;;44.72;29.15;;;12.20;99.90;;;;;;12427815;28;20629;-84
2021/10/14 12:33:58;;;;;;;39.70;26.77;;;12.20;99.90;;;;;;12448785;28;20137;-85
2021/10/14 12:40:10;;;;;;;37.65;25.83;;;12.40;99.90;;;;;;12445373;28;20059;-84
2021/10/14 12:52:22;;;;;;;37.15;24.67;;;12.40;99.90;;;;;;12447204;28;20144;-86
2021/10/14 12:58:25;;;;;;;35.67;23.88;;;12.40;99.90;;;;;;12434639;28;20062;-85
2021/10/14 13:04:27;;;;;;;35.88;23.67;;;12.40;99.90;;;;;;12429830;28;20468;-85
2021/10/14 13:10:30;;;;;;;34.15;22.60;;;12.30;99.90;;;;;;12431201;28;20128;-84
2021/10/14 13:16:33;;;;;;;40.55;25.23;;;12.30;99.90;;;;;;12430688;28;20141;-85
2021/10/14 13:22:35;;;;;;;36.67;26.15;;;12.20;99.90;;;;;;12429467;28;20091;-87
2021/10/14 13:28:38;;;;;;;41.47;27.00;;;12.30;99.90;;;;;;12451494;28;20053;-85
2021/10/14 13:34:40;;;;;;;36.22;26.40;;;12.30;99.90;;;;;;12427960;28;20045;-85
2021/10/14 13:40:46;;;;;;;38.10;26.08;;;12.40;99.90;;;;;;12437141;28;20456;-86
2021/10/14 13:46:49;;;;;;;39.33;27.38;;;12.40;99.90;;;;;;12459972;28;20053;-85
2021/10/14 13:52:51;;;;;;;39.55;27.20;;;12.30;99.90;;;;;;12457148;28;20107;-85
2021/10/14 13:58:52;;;;;;;39.83;26.65;;;12.30;99.90;;;;;;12435200;28;20140;-85
2021/10/14 14:04:54;;;;;;;44.20;28.15;;;12.40;99.90;;;;;;12432065;28;20289;-85
2021/10/14 14:11:01;;;;;;;40.85;28.23;;;12.50;99.90;;;;;;12441220;28;20053;-85
2021/10/14 14:17:03;;;;;;;40.63;28.35;;;12.50;99.90;;;;;;12457751;28;20050;-85
2021/10/14 14:23:05;;;;;;;41.42;27.77;;;12.50;99.90;;;;;;12446148;28;20647;-84
2021/10/14 14:29:07;;;;;;;39.90;27.58;;;12.50;99.90;;;;;;12459984;28;20140;-85
2021/10/14 14:35:09;;;;;;;42.33;27.27;;;12.60;99.90;;;;;;12465546;28;20739;-85
2021/10/14 14:41:13;;;;;;;37.25;26.65;;;12.60;99.90;;;;;;12462476;28;20055;-86
2021/10/14 14:47:15;;;;;;;34.33;24.97;;;12.50;99.90;;;;;;12444373;28;20783;-85
2021/10/14 14:53:17;;;;;;;37.70;25.30;;;12.60;99.90;;;;;;12438556;28;20049;-86
2021/10/14 14:59:19;;;;;;;35.58;24.52;;;12.60;99.90;;;;;;12439501;28;20140;-85
2021/10/14 15:05:21;;;;;;;33.70;24.38;;;12.50;99.90;;;;;;12433549;28;20041;-84
2021/10/14 15:11:25;;;;;;;37.40;25.23;;;12.50;99.90;;;;;;12437981;28;20049;-85
2021/10/14 15:17:27;;;;;;;33.63;23.42;;;12.40;99.90;;;;;;12439643;28;21043;-85
2021/10/14 15:23:29;;;;;;;32.63;23.38;;;12.50;99.90;;;;;;12436792;28;20045;-86
2021/10/14 15:29:30;;;;;;;40.67;25.40;;;12.40;99.90;;;;;;12453547;28;20045;-86
2021/10/14 15:35:33;;;;;;;36.42;26.17;;;12.40;99.90;;;;;;12439818;28;20656;-86
2021/10/14 15:41:35;;;;;;;33.90;24.02;;;12.30;99.90;;;;;;12438766;28;20120;-86
2021/10/14 15:47:38;;;;;;;35.97;25.00;;;12.30;99.90;;;;;;12439115;28;20049;-85
2021/10/14 15:53:40;;;;;;;34.17;25.23;;;12.30;99.90;;;;;;12427045;28;20461;-85
2021/10/14 15:59:42;;;;;;;35.20;25.02;;;12.30;99.90;;;;;;12436049;28;20281;-86
2021/10/14 16:05:45;;;;;;;39.10;26.63;;;12.30;99.90;;;;;;12437448;28;20069;-85
2021/10/14 16:11:49;;;;;;;33.07;25.07;;;12.20;99.90;;;;;;12445962;28;20098;-85
2021/10/14 16:17:51;;;;;;;31.95;24.67;;;12.30;99.90;;;;;;12433085;28;20802;-86
2021/10/14 16:23:53;;;;;;;31.60;24.77;;;12.30;99.90;;;;;;12457662;28;20482;-85
2021/10/14 16:29:57;;;;;;;31.98;23.88;;;12.30;99.90;;;;;;12428774;28;20051;-86
2021/10/14 16:36:01;;;;;;;31.63;23.05;;;12.30;99.90;;;;;;12445587;28;20045;-85
2021/10/14 16:42:04;;;;;;;33.20;24.17;;;12.40;99.90;;;;;;12432121;28;20061;-83
2021/10/14 16:48:06;;;;;;;35.83;23.95;;;12.50;99.90;;;;;;12431729;28;20296;-86
2021/10/14 16:54:07;;;;;;;32.00;24.95;;;12.40;99.90;;;;;;12430187;28;20132;-86
2021/10/14 17:00:16;;;;;;;35.20;26.10;;;12.40;99.90;;;;;;12430538;28;20050;-85
2021/10/14 17:06:18;;;;;;;34.42;25.92;;;12.40;99.90;;;;;;12424128;28;20068;-87
2021/10/14 17:12:20;;;;;;;32.58;24.85;;;12.30;99.90;;;;;;12450121;28;20145;-86
2021/10/14 17:18:24;;;;;;;35.97;26.10;;;12.40;99.90;;;;;;12431710;28;20593;-86
2021/10/14 17:37:33;;;;;;;30.88;24.30;;;12.50;99.90;;;;;;12447431;28;20196;-85
2021/10/14 17:43:45;;;;;;;31.33;23.50;;;12.50;99.90;;;;;;12424906;28;20148;-88
2021/10/14 17:49:47;;;;;;;30.48;23.45;;;12.50;99.90;;;;;;12428213;28;20384;-87
2021/10/14 17:55:49;;;;;;;31.52;24.30;;;12.60;99.90;;;;;;12427896;28;20046;-85
2021/10/14 18:01:51;;;;;;;29.10;24.27;;;12.50;99.90;;;;;;12427344;28;20037;-85
2021/10/14 18:39:30;;;;;;;30.85;23.65;;;12.60;99.90;;;;;;12451683;28;20438;-85
2021/10/14 18:45:33;;;;;;;30.85;22.15;;;12.60;99.90;;;;;;12437490;28;20114;-86
2021/10/14 18:51:36;;;;;;;28.13;22.17;;;12.50;99.90;;;;;;12453481;28;20049;-86
2021/10/14 18:57:38;;;;;;;26.10;19.90;;;12.50;99.90;;;;;;12423938;28;20056;-86
2021/10/14 19:04:30;;;;;;;26.73;20.77;;;12.50;99.90;;;;;;12428498;28;20042;-86
2021/10/14 19:16:27;;;;;;;26.95;19.52;;;12.50;99.90;;;;;;12454059;28;20057;-86
2021/10/14 20:25:47;;;;;;;23.10;15.85;;;12.60;99.90;;;;;;12449308;28;20049;-85
2021/10/14 20:31:49;;;;;;;21.40;15.45;;;12.50;99.90;;;;;;12436016;28;20045;-85
2021/10/14 20:37:51;;;;;;;24.20;15.57;;;12.60;99.90;;;;;;12423337;28;20123;-86
2021/10/14 20:43:53;;;;;;;21.48;15.05;;;12.60;99.90;;;;;;12426476;28;20322;-85
2021/10/14 20:49:57;;;;;;;21.02;14.30;;;12.60;99.90;;;;;;12433232;28;20144;-85
2021/10/14 20:56:33;;;;;;;22.60;14.52;;;12.50;99.90;;;;;;12449211;28;20041;-85
2021/10/14 21:08:38;;;;;;;20.27;14.38;;;12.60;99.90;;;;;;12446874;28;20282;-87
2021/10/14 21:14:41;;;;;;;20.17;14.02;;;12.60;99.90;;;;;;12448737;28;20166;-87
2021/10/14 21:20:42;;;;;;;21.23;14.30;;;12.50;99.90;;;;;;12446665;28;20136;-86
2021/10/14 21:39:44;;;;;;;28.20;16.27;;;12.50;99.90;;;;;;12446983;28;20042;-87
2021/10/14 21:45:47;;;;;;;24.73;14.88;;;12.50;99.90;;;;;;12389630;28;21604;-85
2021/10/14 21:51:49;;;;;;;23.05;14.85;;;12.40;99.90;;;;;;12400533;28;20057;-85
2021/10/14 21:57:51;;;;;;;21.73;14.07;;;12.40;99.90;;;;;;12393770;28;20050;-85
2021/10/14 22:03:53;;;;;;;16.98;12.95;;;12.50;99.90;;;;;;12420797;28;20103;-85
2021/10/14 22:09:55;;;;;;;18.73;13.35;;;12.40;99.90;;;;;;12409174;28;20050;-86
2021/10/14 22:15:57;;;;;;;17.23;11.52;;;12.40;99.90;;;;;;12402068;28;20460;-85
2021/10/14 22:21:59;;;;;;;21.58;11.68;;;12.40;99.90;;;;;;12401872;28;20069;-87
2021/10/14 22:28:01;;;;;;;17.17;12.00;;;12.40;99.90;;;;;;12405114;28;20049;-85
2021/10/14 22:34:04;;;;;;;17.67;12.02;;;12.40;99.90;;;;;;12419480;28;20050;-86
2021/10/14 22:40:07;;;;;;;16.95;11.07;;;12.40;99.90;;;;;;12405788;28;20050;-85
2021/10/14 22:46:09;;;;;;;18.70;12.35;;;12.40;99.90;;;;;;12377749;28;20054;-88
2021/10/14 22:52:11;;;;;;;17.92;11.10;;;12.40;99.90;;;;;;12372076;28;20092;-84
2021/10/14 22:58:13;;;;;;;18.38;10.85;;;12.40;99.90;;;;;;12374418;28;20557;-87
2021/10/14 23:04:15;;;;;;;18.08;10.57;;;12.40;99.90;;;;;;12377424;28;20050;-87
2021/10/14 23:10:17;;;;;;;15.32;9.95;;;12.40;99.90;;;;;;12379988;28;20125;-85
2021/10/14 23:16:19;;;;;;;16.58;9.80;;;12.30;99.90;;;;;;12373203;28;20077;-86
2021/10/14 23:22:21;;;;;;;16.05;9.65;;;12.40;99.90;;;;;;12373435;28;20053;-87
2021/10/14 23:28:26;;;;;;;19.88;10.57;;;12.40;99.90;;;;;;12384903;28;20054;-85
2021/10/14 23:34:28;;;;;;;20.02;10.07;;;12.30;99.90;;;;;;12378005;28;20062;-84
2021/10/14 23:40:30;;;;;;;15.82;10.23;;;12.40;99.90;;;;;;12365250;28;20050;-86
2021/10/14 23:46:32;;;;;;;17.55;9.93;;;12.40;99.90;;;;;;12374047;28;20111;-87
2021/10/14 23:52:34;;;;;;;18.38;9.98;;;12.40;99.90;;;;;;12363484;28;20072;-87
2021/10/14 23:58:38;;;;;;;14.20;9.25;;;12.30;99.90;;;;;;12365864;28;20062;-85
